sensor_id;sensor_type;location;lat;lon;timestamp;P1;durP1;ratioP1;P2;durP2;ratioP2
5058;SDS011;2548;52.050;11.036;2024-02-28T00:00:43;13.60;;;10.98;;
5058;SDS011;2548;52.050;11.036;2024-02-28T00:03:12;16.75;;;12.65;;
5058;SDS011;2548;52.050;11.036;2024-02-28T00:05:39;16.52;;;12.75;;
5058;SDS011;2548;52.050;11.036;2024-02-28T00:08:07;18.85;;;11.05;;
5058;SDS011;2548;52.050;11.036;2024-02-28T00:10:34;14.90;;;11.80;;
5058;SDS011;2548;52.050;11.036;2024-02-28T00:13:02;18.20;;;12.48;;
5058;SDS011;2548;52.050;11.036;2024-02-28T00:15:29;16.17;;;13.40;;
5058;SDS011;2548;52.050;11.036;2024-02-28T00:17:57;15.02;;;12.73;;
5058;SDS011;2548;52.050;11.036;2024-02-28T00:20:26;16.50;;;12.63;;
5058;SDS011;2548;52.050;11.036;2024-02-28T00:22:55;17.65;;;12.70;;
5058;SDS011;2548;52.050;11.036;2024-02-28T00:25:22;17.70;;;13.85;;
5058;SDS011;2548;52.050;11.036;2024-02-28T00:27:50;19.15;;;13.68;;
5058;SDS011;2548;52.050;11.036;2024-02-28T00:30:17;17.52;;;12.25;;
5058;SDS011;2548;52.050;11.036;2024-02-28T00:32:45;18.05;;;13.40;;
5058;SDS011;2548;52.050;11.036;2024-02-28T00:35:12;13.10;;;11.75;;
5058;SDS011;2548;52.050;11.036;2024-02-28T00:37:41;16.67;;;13.50;;
5058;SDS011;2548;52.050;11.036;2024-02-28T00:40:09;18.02;;;12.85;;
5058;SDS011;2548;52.050;11.036;2024-02-28T00:42:37;17.23;;;12.85;;
5058;SDS011;2548;52.050;11.036;2024-02-28T00:45:04;16.17;;;12.50;;
5058;SDS011;2548;52.050;11.036;2024-02-28T00:47:35;18.08;;;12.88;;
5058;SDS011;2548;52.050;11.036;2024-02-28T00:50:04;18.80;;;12.52;;
5058;SDS011;2548;52.050;11.036;2024-02-28T00:52:32;15.63;;;13.48;;
5058;SDS011;2548;52.050;11.036;2024-02-28T00:55:00;16.42;;;13.63;;
5058;SDS011;2548;52.050;11.036;2024-02-28T00:57:28;16.65;;;12.98;;
5058;SDS011;2548;52.050;11.036;2024-02-28T00:59:56;18.23;;;14.60;;
5058;SDS011;2548;52.050;11.036;2024-02-28T01:02:23;21.40;;;15.82;;
5058;SDS011;2548;52.050;11.036;2024-02-28T01:04:50;22.60;;;15.30;;
5058;SDS011;2548;52.050;11.036;2024-02-28T01:07:18;19.33;;;14.27;;
5058;SDS011;2548;52.050;11.036;2024-02-28T01:09:45;18.25;;;13.80;;
5058;SDS011;2548;52.050;11.036;2024-02-28T01:12:14;19.20;;;14.45;;
5058;SDS011;2548;52.050;11.036;2024-02-28T01:14:41;16.17;;;13.35;;
5058;SDS011;2548;52.050;11.036;2024-02-28T01:17:09;18.13;;;14.40;;
5058;SDS011;2548;52.050;11.036;2024-02-28T01:19:36;18.52;;;14.93;;
5058;SDS011;2548;52.050;11.036;2024-02-28T01:22:04;17.63;;;14.85;;
5058;SDS011;2548;52.050;11.036;2024-02-28T01:24:31;23.35;;;16.45;;
5058;SDS011;2548;52.050;11.036;2024-02-28T01:27:00;26.73;;;16.33;;
5058;SDS011;2548;52.050;11.036;2024-02-28T01:29:29;22.90;;;16.83;;
5058;SDS011;2548;52.050;11.036;2024-02-28T01:31:56;29.60;;;21.45;;
5058;SDS011;2548;52.050;11.036;2024-02-28T01:34:24;25.42;;;19.33;;
5058;SDS011;2548;52.050;11.036;2024-02-28T01:36:51;30.70;;;22.05;;
5058;SDS011;2548;52.050;11.036;2024-02-28T01:39:18;28.92;;;19.85;;
5058;SDS011;2548;52.050;11.036;2024-02-28T01:41:50;33.25;;;24.10;;
5058;SDS011;2548;52.050;11.036;2024-02-28T01:44:19;33.53;;;22.35;;
5058;SDS011;2548;52.050;11.036;2024-02-28T01:46:48;39.58;;;24.67;;
5058;SDS011;2548;52.050;11.036;2024-02-28T01:49:16;30.40;;;21.27;;
5058;SDS011;2548;52.050;11.036;2024-02-28T01:51:44;31.83;;;23.30;;
5058;SDS011;2548;52.050;11.036;2024-02-28T01:54:13;26.80;;;20.50;;
5058;SDS011;2548;52.050;11.036;2024-02-28T01:56:42;29.15;;;20.55;;
5058;SDS011;2548;52.050;11.036;2024-02-28T01:59:10;26.90;;;19.92;;
5058;SDS011;2548;52.050;11.036;2024-02-28T02:01:38;28.35;;;21.13;;
5058;SDS011;2548;52.050;11.036;2024-02-28T02:04:07;24.60;;;19.45;;
5058;SDS011;2548;52.050;11.036;2024-02-28T02:06:34;24.60;;;18.70;;
5058;SDS011;2548;52.050;11.036;2024-02-28T02:09:05;20.85;;;17.38;;
5058;SDS011;2548;52.050;11.036;2024-02-28T02:11:33;24.50;;;18.70;;
5058;SDS011;2548;52.050;11.036;2024-02-28T02:14:01;24.77;;;19.38;;
5058;SDS011;2548;52.050;11.036;2024-02-28T02:16:28;22.33;;;16.65;;
5058;SDS011;2548;52.050;11.036;2024-02-28T02:18:55;25.10;;;17.00;;
5058;SDS011;2548;52.050;11.036;2024-02-28T02:21:26;21.23;;;17.13;;
5058;SDS011;2548;52.050;11.036;2024-02-28T02:23:59;20.05;;;14.43;;
5058;SDS011;2548;52.050;11.036;2024-02-28T02:26:27;18.20;;;15.57;;
5058;SDS011;2548;52.050;11.036;2024-02-28T02:28:54;17.80;;;14.63;;
5058;SDS011;2548;52.050;11.036;2024-02-28T02:31:22;18.73;;;14.98;;
5058;SDS011;2548;52.050;11.036;2024-02-28T02:33:49;18.55;;;14.93;;
5058;SDS011;2548;52.050;11.036;2024-02-28T02:36:17;22.60;;;15.38;;
5058;SDS011;2548;52.050;11.036;2024-02-28T02:38:44;20.83;;;14.77;;
5058;SDS011;2548;52.050;11.036;2024-02-28T02:41:13;20.35;;;15.77;;
5058;SDS011;2548;52.050;11.036;2024-02-28T02:43:40;18.25;;;14.00;;
5058;SDS011;2548;52.050;11.036;2024-02-28T02:46:08;17.65;;;14.63;;
5058;SDS011;2548;52.050;11.036;2024-02-28T02:48:35;20.45;;;14.52;;
5058;SDS011;2548;52.050;11.036;2024-02-28T02:51:03;20.40;;;14.48;;
5058;SDS011;2548;52.050;11.036;2024-02-28T02:53:31;17.40;;;14.15;;
5058;SDS011;2548;52.050;11.036;2024-02-28T02:55:58;15.30;;;12.90;;
5058;SDS011;2548;52.050;11.036;2024-02-28T02:58:27;21.48;;;14.57;;
5058;SDS011;2548;52.050;11.036;2024-02-28T03:00:54;21.27;;;14.48;;
5058;SDS011;2548;52.050;11.036;2024-02-28T03:03:22;17.38;;;14.10;;
5058;SDS011;2548;52.050;11.036;2024-02-28T03:05:49;18.27;;;14.00;;
5058;SDS011;2548;52.050;11.036;2024-02-28T03:08:17;19.70;;;14.20;;
5058;SDS011;2548;52.050;11.036;2024-02-28T03:10:44;18.00;;;14.13;;
5058;SDS011;2548;52.050;11.036;2024-02-28T03:13:11;16.98;;;13.73;;
5058;SDS011;2548;52.050;11.036;2024-02-28T03:15:40;19.13;;;14.30;;
5058;SDS011;2548;52.050;11.036;2024-02-28T03:18:08;21.40;;;14.18;;
5058;SDS011;2548;52.050;11.036;2024-02-28T03:20:35;18.52;;;14.52;;
5058;SDS011;2548;52.050;11.036;2024-02-28T03:23:04;18.58;;;14.52;;
5058;SDS011;2548;52.050;11.036;2024-02-28T03:25:31;21.05;;;15.45;;
5058;SDS011;2548;52.050;11.036;2024-02-28T03:27:59;16.73;;;14.07;;
5058;SDS011;2548;52.050;11.036;2024-02-28T03:30:27;20.40;;;15.10;;
5058;SDS011;2548;52.050;11.036;2024-02-28T03:32:56;20.88;;;15.73;;
5058;SDS011;2548;52.050;11.036;2024-02-28T03:35:24;21.08;;;15.05;;
5058;SDS011;2548;52.050;11.036;2024-02-28T03:37:51;19.17;;;15.02;;
5058;SDS011;2548;52.050;11.036;2024-02-28T03:40:18;16.98;;;14.13;;
5058;SDS011;2548;52.050;11.036;2024-02-28T03:42:46;21.63;;;15.82;;
5058;SDS011;2548;52.050;11.036;2024-02-28T03:45:13;21.40;;;16.38;;
5058;SDS011;2548;52.050;11.036;2024-02-28T03:47:41;22.85;;;16.45;;
5058;SDS011;2548;52.050;11.036;2024-02-28T03:50:09;20.05;;;15.27;;
5058;SDS011;2548;52.050;11.036;2024-02-28T03:52:37;19.92;;;15.43;;
5058;SDS011;2548;52.050;11.036;2024-02-28T03:55:04;21.30;;;15.80;;
5058;SDS011;2548;52.050;11.036;2024-02-28T03:57:32;22.98;;;17.20;;
5058;SDS011;2548;52.050;11.036;2024-02-28T04:00:00;31.38;;;18.80;;
5058;SDS011;2548;52.050;11.036;2024-02-28T04:02:37;25.88;;;18.60;;
5058;SDS011;2548;52.050;11.036;2024-02-28T04:05:05;22.30;;;16.95;;
5058;SDS011;2548;52.050;11.036;2024-02-28T04:07:34;26.30;;;18.33;;
5058;SDS011;2548;52.050;11.036;2024-02-28T04:10:02;23.30;;;18.35;;
5058;SDS011;2548;52.050;11.036;2024-02-28T04:12:30;25.70;;;19.38;;
5058;SDS011;2548;52.050;11.036;2024-02-28T04:14:58;24.67;;;18.77;;
5058;SDS011;2548;52.050;11.036;2024-02-28T04:17:26;26.45;;;18.75;;
5058;SDS011;2548;52.050;11.036;2024-02-28T04:19:53;25.10;;;18.70;;
5058;SDS011;2548;52.050;11.036;2024-02-28T04:22:23;25.90;;;19.15;;
5058;SDS011;2548;52.050;11.036;2024-02-28T04:24:52;26.95;;;19.73;;
5058;SDS011;2548;52.050;11.036;2024-02-28T04:27:19;29.58;;;21.63;;
5058;SDS011;2548;52.050;11.036;2024-02-28T04:29:46;27.67;;;21.23;;
5058;SDS011;2548;52.050;11.036;2024-02-28T04:32:14;31.98;;;21.63;;
5058;SDS011;2548;52.050;11.036;2024-02-28T04:34:41;38.15;;;21.25;;
5058;SDS011;2548;52.050;11.036;2024-02-28T04:37:09;29.15;;;21.77;;
5058;SDS011;2548;52.050;11.036;2024-02-28T04:39:36;30.58;;;22.40;;
5058;SDS011;2548;52.050;11.036;2024-02-28T04:42:05;31.15;;;21.45;;
5058;SDS011;2548;52.050;11.036;2024-02-28T04:44:33;32.92;;;22.75;;
5058;SDS011;2548;52.050;11.036;2024-02-28T04:47:01;31.42;;;23.00;;
5058;SDS011;2548;52.050;11.036;2024-02-28T04:49:30;33.42;;;23.40;;
5058;SDS011;2548;52.050;11.036;2024-02-28T04:51:57;26.73;;;21.05;;
5058;SDS011;2548;52.050;11.036;2024-02-28T04:54:25;33.75;;;22.65;;
5058;SDS011;2548;52.050;11.036;2024-02-28T04:56:52;31.40;;;20.85;;
5058;SDS011;2548;52.050;11.036;2024-02-28T04:59:21;34.05;;;21.77;;
5058;SDS011;2548;52.050;11.036;2024-02-28T05:01:48;36.75;;;26.23;;
5058;SDS011;2548;52.050;11.036;2024-02-28T05:04:16;32.80;;;22.67;;
5058;SDS011;2548;52.050;11.036;2024-02-28T05:06:43;39.88;;;22.98;;
5058;SDS011;2548;52.050;11.036;2024-02-28T05:09:11;31.98;;;23.17;;
5058;SDS011;2548;52.050;11.036;2024-02-28T05:11:38;31.48;;;22.67;;
5058;SDS011;2548;52.050;11.036;2024-02-28T05:14:06;37.20;;;24.50;;
5058;SDS011;2548;52.050;11.036;2024-02-28T05:16:35;35.70;;;23.60;;
5058;SDS011;2548;52.050;11.036;2024-02-28T05:19:02;34.88;;;23.48;;
5058;SDS011;2548;52.050;11.036;2024-02-28T05:21:30;34.08;;;23.50;;
5058;SDS011;2548;52.050;11.036;2024-02-28T05:23:57;36.53;;;23.92;;
5058;SDS011;2548;52.050;11.036;2024-02-28T05:26:25;37.10;;;24.27;;
5058;SDS011;2548;52.050;11.036;2024-02-28T05:28:52;35.40;;;23.67;;
5058;SDS011;2548;52.050;11.036;2024-02-28T05:31:20;33.35;;;22.52;;
5058;SDS011;2548;52.050;11.036;2024-02-28T05:33:51;41.20;;;25.98;;
5058;SDS011;2548;52.050;11.036;2024-02-28T05:36:19;38.88;;;23.90;;
5058;SDS011;2548;52.050;11.036;2024-02-28T05:38:47;38.65;;;24.92;;
5058;SDS011;2548;52.050;11.036;2024-02-28T05:41:15;34.75;;;23.77;;
5058;SDS011;2548;52.050;11.036;2024-02-28T05:43:43;36.45;;;23.63;;
5058;SDS011;2548;52.050;11.036;2024-02-28T05:46:11;35.92;;;24.33;;
5058;SDS011;2548;52.050;11.036;2024-02-28T05:48:40;41.58;;;24.58;;
5058;SDS011;2548;52.050;11.036;2024-02-28T05:51:09;36.58;;;24.70;;
5058;SDS011;2548;52.050;11.036;2024-02-28T05:53:37;42.33;;;26.80;;
5058;SDS011;2548;52.050;11.036;2024-02-28T05:56:06;46.60;;;27.02;;
5058;SDS011;2548;52.050;11.036;2024-02-28T05:58:39;36.30;;;24.50;;
5058;SDS011;2548;52.050;11.036;2024-02-28T06:01:07;40.47;;;25.83;;
5058;SDS011;2548;52.050;11.036;2024-02-28T06:03:35;44.90;;;29.55;;
5058;SDS011;2548;52.050;11.036;2024-02-28T06:06:03;51.85;;;28.23;;
5058;SDS011;2548;52.050;11.036;2024-02-28T06:08:33;47.83;;;29.75;;
5058;SDS011;2548;52.050;11.036;2024-02-28T06:11:01;46.55;;;28.63;;
5058;SDS011;2548;52.050;11.036;2024-02-28T06:13:28;47.90;;;29.75;;
5058;SDS011;2548;52.050;11.036;2024-02-28T06:15:56;47.40;;;30.98;;
5058;SDS011;2548;52.050;11.036;2024-02-28T06:18:25;43.90;;;29.60;;
5058;SDS011;2548;52.050;11.036;2024-02-28T06:20:53;45.55;;;29.77;;
5058;SDS011;2548;52.050;11.036;2024-02-28T06:23:21;51.17;;;30.67;;
5058;SDS011;2548;52.050;11.036;2024-02-28T06:25:50;46.38;;;27.35;;
5058;SDS011;2548;52.050;11.036;2024-02-28T06:28:18;48.28;;;30.85;;
5058;SDS011;2548;52.050;11.036;2024-02-28T06:30:46;56.15;;;30.27;;
5058;SDS011;2548;52.050;11.036;2024-02-28T06:33:14;60.65;;;30.73;;
5058;SDS011;2548;52.050;11.036;2024-02-28T06:35:41;42.28;;;27.23;;
5058;SDS011;2548;52.050;11.036;2024-02-28T06:38:08;45.47;;;28.35;;
5058;SDS011;2548;52.050;11.036;2024-02-28T06:40:36;53.05;;;30.23;;
5058;SDS011;2548;52.050;11.036;2024-02-28T06:43:05;44.63;;;28.40;;
5058;SDS011;2548;52.050;11.036;2024-02-28T06:45:32;46.60;;;29.60;;
5058;SDS011;2548;52.050;11.036;2024-02-28T06:48:00;46.60;;;28.45;;
5058;SDS011;2548;52.050;11.036;2024-02-28T06:50:27;47.33;;;29.20;;
5058;SDS011;2548;52.050;11.036;2024-02-28T06:52:54;45.50;;;26.92;;
5058;SDS011;2548;52.050;11.036;2024-02-28T06:55:22;44.65;;;29.13;;
5058;SDS011;2548;52.050;11.036;2024-02-28T06:57:49;47.80;;;31.20;;
5058;SDS011;2548;52.050;11.036;2024-02-28T07:00:18;48.15;;;28.73;;
5058;SDS011;2548;52.050;11.036;2024-02-28T07:02:46;48.95;;;29.25;;
5058;SDS011;2548;52.050;11.036;2024-02-28T07:05:13;49.08;;;29.77;;
5058;SDS011;2548;52.050;11.036;2024-02-28T07:07:41;47.25;;;28.73;;
5058;SDS011;2548;52.050;11.036;2024-02-28T07:10:08;50.35;;;28.73;;
5058;SDS011;2548;52.050;11.036;2024-02-28T07:12:36;84.20;;;44.00;;
5058;SDS011;2548;52.050;11.036;2024-02-28T07:15:04;66.07;;;38.60;;
5058;SDS011;2548;52.050;11.036;2024-02-28T07:17:33;59.83;;;32.75;;
5058;SDS011;2548;52.050;11.036;2024-02-28T07:20:01;47.33;;;29.67;;
5058;SDS011;2548;52.050;11.036;2024-02-28T07:22:28;57.05;;;35.38;;
5058;SDS011;2548;52.050;11.036;2024-02-28T07:24:56;60.65;;;34.83;;
5058;SDS011;2548;52.050;11.036;2024-02-28T07:27:23;43.10;;;27.65;;
5058;SDS011;2548;52.050;11.036;2024-02-28T07:29:50;47.08;;;27.55;;
5058;SDS011;2548;52.050;11.036;2024-02-28T07:32:18;45.80;;;27.50;;
5058;SDS011;2548;52.050;11.036;2024-02-28T07:34:47;47.75;;;28.92;;
5058;SDS011;2548;52.050;11.036;2024-02-28T07:37:14;41.22;;;26.20;;
5058;SDS011;2548;52.050;11.036;2024-02-28T07:39:41;51.88;;;27.30;;
5058;SDS011;2548;52.050;11.036;2024-02-28T07:42:09;40.97;;;26.92;;
5058;SDS011;2548;52.050;11.036;2024-02-28T07:44:36;39.28;;;25.63;;
5058;SDS011;2548;52.050;11.036;2024-02-28T07:47:05;35.92;;;25.35;;
5058;SDS011;2548;52.050;11.036;2024-02-28T07:49:33;42.17;;;26.83;;
5058;SDS011;2548;52.050;11.036;2024-02-28T07:52:02;50.70;;;27.90;;
5058;SDS011;2548;52.050;11.036;2024-02-28T07:54:29;46.10;;;29.23;;
5058;SDS011;2548;52.050;11.036;2024-02-28T07:56:57;46.17;;;27.48;;
5058;SDS011;2548;52.050;11.036;2024-02-28T07:59:25;44.20;;;28.05;;
5058;SDS011;2548;52.050;11.036;2024-02-28T08:01:52;52.08;;;31.45;;
5058;SDS011;2548;52.050;11.036;2024-02-28T08:04:20;43.47;;;27.88;;
5058;SDS011;2548;52.050;11.036;2024-02-28T08:06:47;44.70;;;28.40;;
5058;SDS011;2548;52.050;11.036;2024-02-28T08:09:16;43.47;;;28.10;;
5058;SDS011;2548;52.050;11.036;2024-02-28T08:11:44;46.17;;;28.17;;
5058;SDS011;2548;52.050;11.036;2024-02-28T08:14:12;43.40;;;30.30;;
5058;SDS011;2548;52.050;11.036;2024-02-28T08:16:39;53.90;;;31.63;;
5058;SDS011;2548;52.050;11.036;2024-02-28T08:19:07;54.05;;;32.65;;
5058;SDS011;2548;52.050;11.036;2024-02-28T08:21:34;64.57;;;31.38;;
5058;SDS011;2548;52.050;11.036;2024-02-28T08:24:01;44.20;;;29.88;;
5058;SDS011;2548;52.050;11.036;2024-02-28T08:26:32;49.10;;;30.02;;
5058;SDS011;2548;52.050;11.036;2024-02-28T08:28:59;47.30;;;30.45;;
5058;SDS011;2548;52.050;11.036;2024-02-28T08:31:27;54.70;;;32.45;;
5058;SDS011;2548;52.050;11.036;2024-02-28T08:33:54;44.83;;;27.90;;
5058;SDS011;2548;52.050;11.036;2024-02-28T08:36:22;49.00;;;28.52;;
5058;SDS011;2548;52.050;11.036;2024-02-28T08:38:50;46.88;;;27.27;;
5058;SDS011;2548;52.050;11.036;2024-02-28T08:41:18;47.22;;;28.00;;
5058;SDS011;2548;52.050;11.036;2024-02-28T08:43:46;46.03;;;27.65;;
5058;SDS011;2548;52.050;11.036;2024-02-28T08:46:14;50.83;;;29.75;;
5058;SDS011;2548;52.050;11.036;2024-02-28T08:48:42;47.60;;;29.38;;
5058;SDS011;2548;52.050;11.036;2024-02-28T08:51:09;41.97;;;26.15;;
5058;SDS011;2548;52.050;11.036;2024-02-28T08:53:37;42.33;;;26.10;;
5058;SDS011;2548;52.050;11.036;2024-02-28T08:56:05;45.10;;;27.30;;
5058;SDS011;2548;52.050;11.036;2024-02-28T08:58:33;48.83;;;28.92;;
5058;SDS011;2548;52.050;11.036;2024-02-28T09:01:02;49.17;;;28.67;;
5058;SDS011;2548;52.050;11.036;2024-02-28T09:03:29;47.75;;;28.77;;
5058;SDS011;2548;52.050;11.036;2024-02-28T09:05:57;49.70;;;28.08;;
5058;SDS011;2548;52.050;11.036;2024-02-28T09:08:24;61.28;;;29.83;;
5058;SDS011;2548;52.050;11.036;2024-02-28T09:10:52;53.10;;;30.38;;
5058;SDS011;2548;52.050;11.036;2024-02-28T09:13:19;50.72;;;30.77;;
5058;SDS011;2548;52.050;11.036;2024-02-28T09:15:47;42.92;;;25.80;;
5058;SDS011;2548;52.050;11.036;2024-02-28T09:18:16;60.58;;;32.78;;
5058;SDS011;2548;52.050;11.036;2024-02-28T09:20:43;50.80;;;27.83;;
5058;SDS011;2548;52.050;11.036;2024-02-28T09:23:10;47.78;;;27.30;;
5058;SDS011;2548;52.050;11.036;2024-02-28T09:25:40;44.30;;;26.70;;
5058;SDS011;2548;52.050;11.036;2024-02-28T09:28:07;43.38;;;26.85;;
5058;SDS011;2548;52.050;11.036;2024-02-28T09:30:38;46.28;;;25.77;;
5058;SDS011;2548;52.050;11.036;2024-02-28T09:33:06;55.00;;;27.52;;
5058;SDS011;2548;52.050;11.036;2024-02-28T09:35:35;63.97;;;31.70;;
5058;SDS011;2548;52.050;11.036;2024-02-28T09:38:03;56.72;;;31.00;;
5058;SDS011;2548;52.050;11.036;2024-02-28T09:40:31;58.92;;;31.33;;
5058;SDS011;2548;52.050;11.036;2024-02-28T09:43:00;52.88;;;29.98;;
5058;SDS011;2548;52.050;11.036;2024-02-28T09:45:29;48.78;;;27.55;;
5058;SDS011;2548;52.050;11.036;2024-02-28T09:47:58;50.15;;;27.83;;
5058;SDS011;2548;52.050;11.036;2024-02-28T09:50:26;63.17;;;33.70;;
5058;SDS011;2548;52.050;11.036;2024-02-28T09:52:55;54.28;;;30.38;;
5058;SDS011;2548;52.050;11.036;2024-02-28T09:55:23;59.20;;;33.03;;
5058;SDS011;2548;52.050;11.036;2024-02-28T09:57:50;51.10;;;28.50;;
5058;SDS011;2548;52.050;11.036;2024-02-28T10:00:20;53.20;;;31.45;;
5058;SDS011;2548;52.050;11.036;2024-02-28T10:02:48;51.00;;;29.70;;
5058;SDS011;2548;52.050;11.036;2024-02-28T10:05:16;53.75;;;30.38;;
5058;SDS011;2548;52.050;11.036;2024-02-28T10:07:45;52.67;;;29.80;;
5058;SDS011;2548;52.050;11.036;2024-02-28T10:10:14;51.30;;;29.55;;
5058;SDS011;2548;52.050;11.036;2024-02-28T10:12:42;51.20;;;29.02;;
5058;SDS011;2548;52.050;11.036;2024-02-28T10:15:10;52.95;;;29.25;;
5058;SDS011;2548;52.050;11.036;2024-02-28T10:17:38;71.18;;;30.42;;
5058;SDS011;2548;52.050;11.036;2024-02-28T10:20:06;58.08;;;32.90;;
5058;SDS011;2548;52.050;11.036;2024-02-28T10:22:35;56.78;;;32.45;;
5058;SDS011;2548;52.050;11.036;2024-02-28T10:25:02;54.80;;;32.70;;
5058;SDS011;2548;52.050;11.036;2024-02-28T10:27:35;56.92;;;32.60;;
5058;SDS011;2548;52.050;11.036;2024-02-28T10:30:02;53.85;;;31.05;;
5058;SDS011;2548;52.050;11.036;2024-02-28T10:32:31;61.75;;;33.92;;
5058;SDS011;2548;52.050;11.036;2024-02-28T10:34:59;56.53;;;31.75;;
5058;SDS011;2548;52.050;11.036;2024-02-28T10:37:28;49.72;;;28.48;;
5058;SDS011;2548;52.050;11.036;2024-02-28T10:39:57;53.08;;;29.20;;
5058;SDS011;2548;52.050;11.036;2024-02-28T10:42:25;44.80;;;27.77;;
5058;SDS011;2548;52.050;11.036;2024-02-28T10:44:55;45.63;;;28.33;;
5058;SDS011;2548;52.050;11.036;2024-02-28T10:47:25;49.58;;;27.33;;
5058;SDS011;2548;52.050;11.036;2024-02-28T10:49:55;39.67;;;26.83;;
5058;SDS011;2548;52.050;11.036;2024-02-28T10:52:23;41.03;;;25.75;;
5058;SDS011;2548;52.050;11.036;2024-02-28T10:54:53;41.53;;;23.25;;
5058;SDS011;2548;52.050;11.036;2024-02-28T10:57:22;41.15;;;25.20;;
5058;SDS011;2548;52.050;11.036;2024-02-28T10:59:52;42.10;;;24.63;;
5058;SDS011;2548;52.050;11.036;2024-02-28T11:02:21;40.97;;;24.58;;
5058;SDS011;2548;52.050;11.036;2024-02-28T11:04:51;37.70;;;23.42;;
5058;SDS011;2548;52.050;11.036;2024-02-28T11:07:21;42.00;;;23.90;;
5058;SDS011;2548;52.050;11.036;2024-02-28T11:09:53;40.63;;;24.05;;
5058;SDS011;2548;52.050;11.036;2024-02-28T11:12:24;39.20;;;23.83;;
5058;SDS011;2548;52.050;11.036;2024-02-28T11:14:59;37.22;;;22.63;;
5058;SDS011;2548;52.050;11.036;2024-02-28T11:17:29;35.17;;;22.13;;
5058;SDS011;2548;52.050;11.036;2024-02-28T11:19:57;47.13;;;22.90;;
5058;SDS011;2548;52.050;11.036;2024-02-28T11:22:27;37.72;;;22.85;;
5058;SDS011;2548;52.050;11.036;2024-02-28T11:24:55;38.50;;;21.52;;
5058;SDS011;2548;52.050;11.036;2024-02-28T11:27:22;39.83;;;24.45;;
5058;SDS011;2548;52.050;11.036;2024-02-28T11:29:51;35.05;;;22.88;;
5058;SDS011;2548;52.050;11.036;2024-02-28T11:32:19;43.97;;;25.60;;
5058;SDS011;2548;52.050;11.036;2024-02-28T11:34:47;37.55;;;23.92;;
5058;SDS011;2548;52.050;11.036;2024-02-28T11:37:17;39.25;;;24.60;;
5058;SDS011;2548;52.050;11.036;2024-02-28T11:39:46;39.85;;;23.80;;
5058;SDS011;2548;52.050;11.036;2024-02-28T11:42:14;41.50;;;24.10;;
5058;SDS011;2548;52.050;11.036;2024-02-28T11:44:42;38.65;;;24.05;;
5058;SDS011;2548;52.050;11.036;2024-02-28T11:47:10;42.25;;;26.65;;
5058;SDS011;2548;52.050;11.036;2024-02-28T11:49:37;45.85;;;26.58;;
5058;SDS011;2548;52.050;11.036;2024-02-28T11:52:06;40.25;;;23.90;;
5058;SDS011;2548;52.050;11.036;2024-02-28T11:54:36;42.55;;;26.52;;
5058;SDS011;2548;52.050;11.036;2024-02-28T11:57:04;43.83;;;25.63;;
5058;SDS011;2548;52.050;11.036;2024-02-28T11:59:31;41.15;;;25.85;;
5058;SDS011;2548;52.050;11.036;2024-02-28T12:01:59;38.30;;;23.98;;
5058;SDS011;2548;52.050;11.036;2024-02-28T12:04:26;41.92;;;24.70;;
5058;SDS011;2548;52.050;11.036;2024-02-28T12:06:54;47.17;;;27.83;;
5058;SDS011;2548;52.050;11.036;2024-02-28T12:09:22;42.83;;;26.70;;
5058;SDS011;2548;52.050;11.036;2024-02-28T12:11:50;45.63;;;29.20;;
5058;SDS011;2548;52.050;11.036;2024-02-28T12:14:18;42.72;;;26.02;;
5058;SDS011;2548;52.050;11.036;2024-02-28T12:16:45;38.95;;;25.65;;
5058;SDS011;2548;52.050;11.036;2024-02-28T12:19:15;42.40;;;26.13;;
5058;SDS011;2548;52.050;11.036;2024-02-28T12:21:45;46.15;;;26.58;;
5058;SDS011;2548;52.050;11.036;2024-02-28T12:24:13;39.15;;;25.88;;
5058;SDS011;2548;52.050;11.036;2024-02-28T12:26:42;44.20;;;25.17;;
5058;SDS011;2548;52.050;11.036;2024-02-28T12:29:09;42.85;;;26.33;;
5058;SDS011;2548;52.050;11.036;2024-02-28T12:31:37;37.60;;;24.20;;
5058;SDS011;2548;52.050;11.036;2024-02-28T12:34:05;37.90;;;24.73;;
5058;SDS011;2548;52.050;11.036;2024-02-28T12:36:32;39.28;;;25.33;;
5058;SDS011;2548;52.050;11.036;2024-02-28T12:39:00;42.45;;;26.30;;
5058;SDS011;2548;52.050;11.036;2024-02-28T12:41:28;48.38;;;28.70;;
5058;SDS011;2548;52.050;11.036;2024-02-28T12:43:57;43.63;;;27.83;;
5058;SDS011;2548;52.050;11.036;2024-02-28T12:46:24;46.80;;;26.70;;
5058;SDS011;2548;52.050;11.036;2024-02-28T12:48:52;41.88;;;27.45;;
5058;SDS011;2548;52.050;11.036;2024-02-28T12:51:36;43.83;;;27.80;;
5058;SDS011;2548;52.050;11.036;2024-02-28T12:54:04;40.60;;;26.23;;
5058;SDS011;2548;52.050;11.036;2024-02-28T12:56:33;46.05;;;27.50;;
5058;SDS011;2548;52.050;11.036;2024-02-28T12:59:02;43.22;;;27.55;;
5058;SDS011;2548;52.050;11.036;2024-02-28T13:01:31;47.70;;;27.05;;
5058;SDS011;2548;52.050;11.036;2024-02-28T13:03:59;46.60;;;28.75;;
5058;SDS011;2548;52.050;11.036;2024-02-28T13:06:26;43.63;;;28.08;;
5058;SDS011;2548;52.050;11.036;2024-02-28T13:08:53;47.10;;;31.02;;
5058;SDS011;2548;52.050;11.036;2024-02-28T13:11:21;50.15;;;30.45;;
5058;SDS011;2548;52.050;11.036;2024-02-28T13:13:50;44.88;;;27.35;;
5058;SDS011;2548;52.050;11.036;2024-02-28T13:16:20;46.95;;;29.40;;
5058;SDS011;2548;52.050;11.036;2024-02-28T13:18:48;50.53;;;30.85;;
5058;SDS011;2548;52.050;11.036;2024-02-28T13:21:15;46.13;;;29.50;;
5058;SDS011;2548;52.050;11.036;2024-02-28T13:23:43;49.28;;;28.60;;
5058;SDS011;2548;52.050;11.036;2024-02-28T13:26:10;48.40;;;29.15;;
5058;SDS011;2548;52.050;11.036;2024-02-28T13:28:43;44.22;;;27.17;;
5058;SDS011;2548;52.050;11.036;2024-02-28T13:31:10;50.70;;;28.33;;
5058;SDS011;2548;52.050;11.036;2024-02-28T13:33:39;51.05;;;30.70;;
5058;SDS011;2548;52.050;11.036;2024-02-28T13:36:08;44.08;;;27.88;;
5058;SDS011;2548;52.050;11.036;2024-02-28T13:38:36;48.33;;;32.03;;
5058;SDS011;2548;52.050;11.036;2024-02-28T13:41:03;44.45;;;28.77;;
5058;SDS011;2548;52.050;11.036;2024-02-28T13:43:31;47.45;;;29.70;;
5058;SDS011;2548;52.050;11.036;2024-02-28T13:45:59;59.35;;;31.98;;
5058;SDS011;2548;52.050;11.036;2024-02-28T13:48:27;51.70;;;31.40;;
5058;SDS011;2548;52.050;11.036;2024-02-28T13:50:57;49.92;;;30.40;;
5058;SDS011;2548;52.050;11.036;2024-02-28T13:53:24;51.08;;;30.08;;
5058;SDS011;2548;52.050;11.036;2024-02-28T13:55:53;51.15;;;31.48;;
5058;SDS011;2548;52.050;11.036;2024-02-28T13:58:20;54.72;;;31.13;;
5058;SDS011;2548;52.050;11.036;2024-02-28T14:00:48;49.42;;;28.50;;
5058;SDS011;2548;52.050;11.036;2024-02-28T14:03:15;48.38;;;30.30;;
5058;SDS011;2548;52.050;11.036;2024-02-28T14:05:43;49.58;;;28.90;;
5058;SDS011;2548;52.050;11.036;2024-02-28T14:08:11;49.67;;;29.55;;
5058;SDS011;2548;52.050;11.036;2024-02-28T14:10:39;49.55;;;28.48;;
5058;SDS011;2548;52.050;11.036;2024-02-28T14:13:06;42.60;;;27.45;;
5058;SDS011;2548;52.050;11.036;2024-02-28T14:15:35;50.78;;;29.40;;
5058;SDS011;2548;52.050;11.036;2024-02-28T14:18:03;49.00;;;28.55;;
5058;SDS011;2548;52.050;11.036;2024-02-28T14:20:30;53.30;;;31.33;;
5058;SDS011;2548;52.050;11.036;2024-02-28T14:22:58;49.75;;;28.73;;
5058;SDS011;2548;52.050;11.036;2024-02-28T14:25:27;38.97;;;26.48;;
5058;SDS011;2548;52.050;11.036;2024-02-28T14:27:56;51.78;;;27.25;;
5058;SDS011;2548;52.050;11.036;2024-02-28T14:30:24;51.22;;;26.20;;
5058;SDS011;2548;52.050;11.036;2024-02-28T14:32:52;47.05;;;28.27;;
5058;SDS011;2548;52.050;11.036;2024-02-28T14:35:19;44.00;;;27.00;;
5058;SDS011;2548;52.050;11.036;2024-02-28T14:37:47;48.00;;;27.27;;